sensor_id;sensor_type;location;lat;lon;timestamp;pressure;altitude;pressure_sealevel;temperature;humidity
12969;BME280;6549;53.128;8.182;2023-02-22T00:01:33;101398.47;;;8.19;100.00
12969;BME280;6549;53.128;8.182;2023-02-22T00:04:49;101395.31;;;8.17;100.00
12969;BME280;6549;53.128;8.182;2023-02-22T00:07:49;101388.69;;;8.18;100.00
12969;BME280;6549;53.128;8.182;2023-02-22T00:10:50;101393.00;;;8.19;100.00
12969;BME280;6549;53.128;8.182;2023-02-22T00:13:50;101387.53;;;8.19;100.00
12969;BME280;6549;53.128;8.182;2023-02-22T00:16:51;101381.28;;;8.19;100.00
12969;BME280;6549;53.128;8.182;2023-02-22T00:19:51;101387.19;;;8.21;100.00
12969;BME280;6549;53.128;8.182;2023-02-22T00:22:52;101379.69;;;8.18;100.00
12969;BME280;6549;53.128;8.182;2023-02-22T00:25:53;101371.09;;;8.19;100.00
12969;BME280;6549;53.128;8.182;2023-02-22T00:28:54;101370.69;;;8.17;100.00
12969;BME280;6549;53.128;8.182;2023-02-22T00:31:55;101378.16;;;8.20;100.00
12969;BME280;6549;53.128;8.182;2023-02-22T00:34:55;101373.06;;;8.19;100.00
12969;BME280;6549;53.128;8.182;2023-02-22T00:38:00;101370.34;;;8.19;100.00
12969;BME280;6549;53.128;8.182;2023-02-22T00:41:01;101373.41;;;8.17;100.00
12969;BME280;6549;53.128;8.182;2023-02-22T00:44:01;101369.53;;;8.18;100.00
12969;BME280;6549;53.128;8.182;2023-02-22T00:47:01;101376.94;;;8.18;100.00
12969;BME280;6549;53.128;8.182;2023-02-22T00:50:04;101372.63;;;8.17;100.00
12969;BME280;6549;53.128;8.182;2023-02-22T00:53:05;101366.00;;;8.18;100.00
12969;BME280;6549;53.128;8.182;2023-02-22T00:56:06;101364.06;;;8.18;100.00
12969;BME280;6549;53.128;8.182;2023-02-22T00:59:06;101368.75;;;8.18;100.00
12969;BME280;6549;53.128;8.182;2023-02-22T01:02:07;101360.06;;;8.16;100.00
12969;BME280;6549;53.128;8.182;2023-02-22T01:05:10;101354.59;;;8.16;100.00
12969;BME280;6549;53.128;8.182;2023-02-22T01:08:15;101352.66;;;8.16;100.00
12969;BME280;6549;53.128;8.182;2023-02-22T01:11:15;101344.78;;;8.14;100.00
12969;BME280;6549;53.128;8.182;2023-02-22T01:14:16;101345.16;;;8.13;100.00
12969;BME280;6549;53.128;8.182;2023-02-22T01:17:17;101347.91;;;8.13;100.00
12969;BME280;6549;53.128;8.182;2023-02-22T01:20:18;101341.97;;;8.11;100.00
12969;BME280;6549;53.128;8.182;2023-02-22T01:23:19;101343.56;;;8.12;100.00
12969;BME280;6549;53.128;8.182;2023-02-22T01:26:20;101341.97;;;8.11;100.00
12969;BME280;6549;53.128;8.182;2023-02-22T01:29:20;101343.91;;;8.10;100.00
12969;BME280;6549;53.128;8.182;2023-02-22T01:32:21;101332.97;;;8.10;100.00
12969;BME280;6549;53.128;8.182;2023-02-22T01:35:24;101337.94;;;8.05;100.00
12969;BME280;6549;53.128;8.182;2023-02-22T01:38:25;101327.66;;;8.02;100.00
12969;BME280;6549;53.128;8.182;2023-02-22T01:41:25;101329.25;;;8.03;100.00
12969;BME280;6549;53.128;8.182;2023-02-22T01:44:34;101330.06;;;8.03;100.00
12969;BME280;6549;53.128;8.182;2023-02-22T01:47:37;101323.78;;;8.03;100.00
12969;BME280;6549;53.128;8.182;2023-02-22T01:50:44;101323.78;;;8.03;100.00
12969;BME280;6549;53.128;8.182;2023-02-22T01:53:53;101326.09;;;8.01;100.00
12969;BME280;6549;53.128;8.182;2023-02-22T02:00:08;101318.22;;;7.99;100.00
12969;BME280;6549;53.128;8.182;2023-02-22T02:03:14;101317.44;;;7.99;100.00
12969;BME280;6549;53.128;8.182;2023-02-22T02:06:18;101322.91;;;7.99;100.00
12969;BME280;6549;53.128;8.182;2023-02-22T02:09:44;101313.81;;;7.95;100.00
12969;BME280;6549;53.128;8.182;2023-02-22T02:12:49;101309.50;;;7.94;100.00
12969;BME280;6549;53.128;8.182;2023-02-22T02:15:53;101304.72;;;7.91;100.00
12969;BME280;6549;53.128;8.182;2023-02-22T02:18:54;101299.94;;;7.88;100.00
12969;BME280;6549;53.128;8.182;2023-02-22T02:22:09;101303.06;;;7.86;100.00
12969;BME280;6549;53.128;8.182;2023-02-22T02:25:18;101304.13;;;7.82;100.00
12969;BME280;6549;53.128;8.182;2023-02-22T02:35:36;101294.06;;;7.86;100.00
12969;BME280;6549;53.128;8.182;2023-02-22T02:38:54;101293.59;;;7.84;100.00
12969;BME280;6549;53.128;8.182;2023-02-22T02:41:59;101292.03;;;7.83;100.00
12969;BME280;6549;53.128;8.182;2023-02-22T02:45:08;101289.28;;;7.83;100.00
12969;BME280;6549;53.128;8.182;2023-02-22T02:48:11;101288.50;;;7.82;100.00
12969;BME280;6549;53.128;8.182;2023-02-22T02:51:13;101284.97;;;7.82;100.00
12969;BME280;6549;53.128;8.182;2023-02-22T02:54:16;101277.47;;;7.79;100.00
12969;BME280;6549;53.128;8.182;2023-02-22T02:57:16;101276.69;;;7.78;100.00
12969;BME280;6549;53.128;8.182;2023-02-22T03:00:19;101269.25;;;7.79;100.00
12969;BME280;6549;53.128;8.182;2023-02-22T03:14:18;101263.59;;;7.72;100.00
12969;BME280;6549;53.128;8.182;2023-02-22T03:20:49;101261.66;;;7.72;100.00
12969;BME280;6549;53.128;8.182;2023-02-22T03:24:16;101256.19;;;7.72;100.00
12969;BME280;6549;53.128;8.182;2023-02-22T03:27:35;101261.31;;;7.74;100.00
12969;BME280;6549;53.128;8.182;2023-02-22T03:31:04;101248.06;;;7.76;100.00
12969;BME280;6549;53.128;8.182;2023-02-22T03:34:12;101250.38;;;7.74;100.00
12969;BME280;6549;53.128;8.182;2023-02-22T03:37:21;101257.41;;;7.75;100.00
12969;BME280;6549;53.128;8.182;2023-02-22T03:40:32;101257.41;;;7.75;100.00
12969;BME280;6549;53.128;8.182;2023-02-22T03:43:37;101262.88;;;7.75;100.00
12969;BME280;6549;53.128;8.182;2023-02-22T03:46:40;101264.47;;;7.76;100.00
12969;BME280;6549;53.128;8.182;2023-02-22T03:49:50;101264.47;;;7.76;100.00
12969;BME280;6549;53.128;8.182;2023-02-22T03:52:52;101260.94;;;7.75;100.00
12969;BME280;6549;53.128;8.182;2023-02-22T03:55:54;101264.47;;;7.76;100.00
12969;BME280;6549;53.128;8.182;2023-02-22T03:58:57;101257.78;;;7.73;100.00
12969;BME280;6549;53.128;8.182;2023-02-22T04:01:57;101253.91;;;7.74;100.00
12969;BME280;6549;53.128;8.182;2023-02-22T04:04:57;101253.13;;;7.74;100.00
12969;BME280;6549;53.128;8.182;2023-02-22T04:07:58;101250.25;;;7.70;100.00
12969;BME280;6549;53.128;8.182;2023-02-22T04:10:58;101252.66;;;7.72;100.00
12969;BME280;6549;53.128;8.182;2023-02-22T04:14:00;101250.25;;;7.70;100.00
12969;BME280;6549;53.128;8.182;2023-02-22T04:17:00;101248.34;;;7.71;100.00
12969;BME280;6549;53.128;8.182;2023-02-22T04:20:01;101248.78;;;7.73;100.00
12969;BME280;6549;53.128;8.182;2023-02-22T04:23:01;101246.75;;;7.70;100.00
12969;BME280;6549;53.128;8.182;2023-02-22T04:26:01;101239.31;;;7.70;100.00
12969;BME280;6549;53.128;8.182;2023-02-22T04:29:02;101240.50;;;7.69;100.00
12969;BME280;6549;53.128;8.182;2023-02-22T04:32:03;101234.22;;;7.68;100.00
12969;BME280;6549;53.128;8.182;2023-02-22T04:35:04;101236.50;;;7.66;100.00
12969;BME280;6549;53.128;8.182;2023-02-22T04:38:05;101224.00;;;7.65;100.00
12969;BME280;6549;53.128;8.182;2023-02-22T04:41:08;101222.16;;;7.70;100.00
12969;BME280;6549;53.128;8.182;2023-02-22T04:44:08;101221.69;;;7.67;100.00
12969;BME280;6549;53.128;8.182;2023-02-22T04:47:08;101216.22;;;7.67;100.00
12969;BME280;6549;53.128;8.182;2023-02-22T04:50:10;101206.88;;;7.68;100.00
12969;BME280;6549;53.128;8.182;2023-02-22T04:53:11;101213.50;;;7.67;100.00
12969;BME280;6549;53.128;8.182;2023-02-22T04:56:11;101204.84;;;7.65;100.00
12969;BME280;6549;53.128;8.182;2023-02-22T04:59:12;101207.94;;;7.64;100.00
12969;BME280;6549;53.128;8.182;2023-02-22T05:02:12;101208.28;;;7.62;100.00
12969;BME280;6549;53.128;8.182;2023-02-22T05:05:17;101209.41;;;7.61;100.00
12969;BME280;6549;53.128;8.182;2023-02-22T05:08:18;101206.97;;;7.56;100.00
12969;BME280;6549;53.128;8.182;2023-02-22T05:11:19;101210.13;;;7.58;100.00
12969;BME280;6549;53.128;8.182;2023-02-22T05:14:19;101191.34;;;7.57;100.00
12969;BME280;6549;53.128;8.182;2023-02-22T05:17:19;101187.13;;;7.59;100.00
12969;BME280;6549;53.128;8.182;2023-02-22T05:20:28;101186.31;;;7.59;100.00
12969;BME280;6549;53.128;8.182;2023-02-22T05:23:29;101192.94;;;7.58;100.00
12969;BME280;6549;53.128;8.182;2023-02-22T05:26:29;101187.38;;;7.54;100.00
12969;BME280;6549;53.128;8.182;2023-02-22T05:29:29;101186.25;;;7.55;100.00
12969;BME280;6549;53.128;8.182;2023-02-22T05:32:30;101185.00;;;7.53;100.00
12969;BME280;6549;53.128;8.182;2023-02-22T05:35:31;101175.31;;;7.55;100.00
12969;BME280;6549;53.128;8.182;2023-02-22T05:38:31;101173.78;;;7.58;100.00
12969;BME280;6549;53.128;8.182;2023-02-22T05:41:32;101158.53;;;7.57;100.00
12969;BME280;6549;53.128;8.182;2023-02-22T05:44:32;101149.56;;;7.56;100.00
12969;BME280;6549;53.128;8.182;2023-02-22T05:47:32;101152.91;;;7.50;100.00
12969;BME280;6549;53.128;8.182;2023-02-22T05:50:33;101145.16;;;7.52;100.00
12969;BME280;6549;53.128;8.182;2023-02-22T05:53:33;101146.28;;;7.51;100.00
12969;BME280;6549;53.128;8.182;2023-02-22T05:56:33;101143.09;;;7.49;100.00
12969;BME280;6549;53.128;8.182;2023-02-22T05:59:35;101155.22;;;7.48;100.00
12969;BME280;6549;53.128;8.182;2023-02-22T06:02:35;101150.50;;;7.48;100.00
12969;BME280;6549;53.128;8.182;2023-02-22T06:05:36;101148.56;;;7.49;100.00
12969;BME280;6549;53.128;8.182;2023-02-22T06:08:36;101153.69;;;7.50;100.00
12969;BME280;6549;53.128;8.182;2023-02-22T06:11:36;101157.56;;;7.49;100.00
12969;BME280;6549;53.128;8.182;2023-02-22T06:14:37;101153.63;;;7.47;100.00
12969;BME280;6549;53.128;8.182;2023-02-22T06:17:37;101156.50;;;7.54;100.00
12969;BME280;6549;53.128;8.182;2023-02-22T06:20:38;101152.91;;;7.50;100.00
12969;BME280;6549;53.128;8.182;2023-02-22T06:23:39;101144.84;;;7.57;100.00
12969;BME280;6549;53.128;8.182;2023-02-22T06:26:39;101151.75;;;7.51;100.00
12969;BME280;6549;53.128;8.182;2023-02-22T06:29:46;101147.78;;;7.48;100.00
12969;BME280;6549;53.128;8.182;2023-02-22T06:32:46;101150.16;;;7.50;100.00
12969;BME280;6549;53.128;8.182;2023-02-22T06:35:46;101142.91;;;7.57;100.00
12969;BME280;6549;53.128;8.182;2023-02-22T06:38:47;101150.69;;;7.55;100.00
12969;BME280;6549;53.128;8.182;2023-02-22T06:41:47;101141.63;;;7.51;100.00
12969;BME280;6549;53.128;8.182;2023-02-22T06:44:49;101135.69;;;7.49;100.00
12969;BME280;6549;53.128;8.182;2023-02-22T06:47:49;101142.75;;;7.50;100.00
12969;BME280;6549;53.128;8.182;2023-02-22T06:50:50;101137.38;;;7.54;100.00
12969;BME280;6549;53.128;8.182;2023-02-22T06:53:50;101132.25;;;7.52;100.00
12969;BME280;6549;53.128;8.182;2023-02-22T06:56:50;101146.56;;;7.46;100.00
12969;BME280;6549;53.128;8.182;2023-02-22T06:59:51;101142.69;;;7.47;100.00
12969;BME280;6549;53.128;8.182;2023-02-22T07:02:52;101155.28;;;7.51;100.00
12969;BME280;6549;53.128;8.182;2023-02-22T07:05:53;101146.28;;;7.51;100.00
12969;BME280;6549;53.128;8.182;2023-02-22T07:08:54;101151.75;;;7.51;100.00
12969;BME280;6549;53.128;8.182;2023-02-22T07:11:54;101148.16;;;7.47;100.00
12969;BME280;6549;53.128;8.182;2023-02-22T07:14:55;101149.03;;;7.51;100.00
12969;BME280;6549;53.128;8.182;2023-02-22T07:17:55;101143.63;;;7.54;100.00
12969;BME280;6549;53.128;8.182;2023-02-22T07:20:55;101140.91;;;7.54;100.00
12969;BME280;6549;53.128;8.182;2023-02-22T07:23:57;101137.63;;;7.64;100.00
12969;BME280;6549;53.128;8.182;2023-02-22T07:26:59;101145.91;;;7.68;100.00
12969;BME280;6549;53.128;8.182;2023-02-22T07:30:00;101138.41;;;7.65;100.00
12969;BME280;6549;53.128;8.182;2023-02-22T07:33:05;101140.50;;;7.72;100.00
12969;BME280;6549;53.128;8.182;2023-02-22T07:36:06;101142.22;;;7.60;100.00
12969;BME280;6549;53.128;8.182;2023-02-22T07:39:06;101135.31;;;7.66;100.00
12969;BME280;6549;53.128;8.182;2023-02-22T07:42:08;101129.22;;;7.57;100.00
12969;BME280;6549;53.128;8.182;2023-02-22T07:45:09;101131.97;;;7.57;100.00
12969;BME280;6549;53.128;8.182;2023-02-22T07:48:10;101132.38;;;7.75;100.00
12969;BME280;6549;53.128;8.182;2023-02-22T07:51:14;101130.09;;;7.61;100.00
12969;BME280;6549;53.128;8.182;2023-02-22T07:54:14;101128.16;;;7.62;100.00
12969;BME280;6549;53.128;8.182;2023-02-22T07:57:15;101125.88;;;7.64;100.00
12969;BME280;6549;53.128;8.182;2023-02-22T08:00:21;101126.56;;;7.77;100.00
12969;BME280;6549;53.128;8.182;2023-02-22T08:03:24;101128.16;;;7.78;100.00
12969;BME280;6549;53.128;8.182;2023-02-22T08:06:25;101127.88;;;7.83;100.00
12969;BME280;6549;53.128;8.182;2023-02-22T08:09:25;101125.00;;;7.95;100.00
12969;BME280;6549;53.128;8.182;2023-02-22T08:12:25;101123.06;;;7.95;100.00
12969;BME280;6549;53.128;8.182;2023-02-22T08:15:29;101117.38;;;8.04;100.00
12969;BME280;6549;53.128;8.182;2023-02-22T08:18:29;101110.66;;;8.01;100.00
12969;BME280;6549;53.128;8.182;2023-02-22T08:21:30;101108.16;;;8.12;100.00
12969;BME280;6549;53.128;8.182;2023-02-22T08:24:30;101111.19;;;8.07;100.00
12969;BME280;6549;53.128;8.182;2023-02-22T08:27:31;101105.94;;;8.18;100.00
12969;BME280;6549;53.128;8.182;2023-02-22T08:30:33;101101.31;;;8.22;100.00
12969;BME280;6549;53.128;8.182;2023-02-22T08:33:34;101104.13;;;8.25;100.00
12969;BME280;6549;53.128;8.182;2023-02-22T08:36:34;101101.13;;;8.30;100.00
12969;BME280;6549;53.128;8.182;2023-02-22T08:39:35;101106.59;;;8.30;100.00
12969;BME280;6549;53.128;8.182;2023-02-22T08:42:35;101106.72;;;8.37;100.00
12969;BME280;6549;53.128;8.182;2023-02-22T08:45:35;101094.03;;;8.48;100.00
12969;BME280;6549;53.128;8.182;2023-02-22T08:48:36;101109.47;;;8.37;100.00
12969;BME280;6549;53.128;8.182;2023-02-22T08:51:36;101100.97;;;8.42;100.00
12969;BME280;6549;53.128;8.182;2023-02-22T08:54:36;101105.94;;;8.37;100.00
12969;BME280;6549;53.128;8.182;2023-02-22T08:57:37;101102.50;;;8.40;100.00
12969;BME280;6549;53.128;8.182;2023-02-22T09:00:38;101088.91;;;8.47;100.00
12969;BME280;6549;53.128;8.182;2023-02-22T09:03:39;101091.00;;;8.53;100.00
12969;BME280;6549;53.128;8.182;2023-02-22T09:06:40;101089.53;;;8.60;100.00
12969;BME280;6549;53.128;8.182;2023-02-22T09:09:42;101085.53;;;8.53;100.00
12969;BME280;6549;53.128;8.182;2023-02-22T09:12:43;101083.88;;;8.49;100.00
12969;BME280;6549;53.128;8.182;2023-02-22T09:15:43;101088.56;;;8.48;100.00
12969;BME280;6549;53.128;8.182;2023-02-22T09:18:43;101078.97;;;8.58;100.00
12969;BME280;6549;53.128;8.182;2023-02-22T09:21:44;101075.13;;;8.63;100.00
12969;BME280;6549;53.128;8.182;2023-02-22T09:24:44;101071.31;;;8.67;100.00
12969;BME280;6549;53.128;8.182;2023-02-22T09:27:49;101074.66;;;8.80;100.00
12969;BME280;6549;53.128;8.182;2023-02-22T09:30:50;101076.34;;;8.88;100.00
12969;BME280;6549;53.128;8.182;2023-02-22T09:33:50;101068.13;;;8.88;100.00
12969;BME280;6549;53.128;8.182;2023-02-22T09:36:51;101070.63;;;8.96;100.00
12969;BME280;6549;53.128;8.182;2023-02-22T09:39:51;101067.63;;;9.05;100.00
12969;BME280;6549;53.128;8.182;2023-02-22T09:46:14;101075.09;;;9.08;100.00
12969;BME280;6549;53.128;8.182;2023-02-22T09:56:04;101072.56;;;9.75;100.00
12969;BME280;6549;53.128;8.182;2023-02-22T09:59:07;101069.50;;;9.80;100.00
12969;BME280;6549;53.128;8.182;2023-02-22T10:02:28;101067.34;;;9.96;100.00
12969;BME280;6549;53.128;8.182;2023-02-22T10:05:35;101073.56;;;10.19;100.00
12969;BME280;6549;53.128;8.182;2023-02-22T10:08:37;101069.38;;;10.32;100.00
12969;BME280;6549;53.128;8.182;2023-02-22T10:12:01;101067.28;;;10.56;100.00
12969;BME280;6549;53.128;8.182;2023-02-22T10:19:15;101063.31;;;10.16;100.00
12969;BME280;6549;53.128;8.182;2023-02-22T10:22:33;101054.75;;;10.21;100.00
12969;BME280;6549;53.128;8.182;2023-02-22T10:25:37;101045.16;;;10.42;100.00
12969;BME280;6549;53.128;8.182;2023-02-22T10:29:04;101046.94;;;10.64;100.00
12969;BME280;6549;53.128;8.182;2023-02-22T10:32:14;101045.72;;;11.05;100.00
12969;BME280;6549;53.128;8.182;2023-02-22T10:35:25;101043.25;;;11.48;100.00
12969;BME280;6549;53.128;8.182;2023-02-22T10:38:29;101039.00;;;11.57;100.00
12969;BME280;6549;53.128;8.182;2023-02-22T10:41:32;101037.56;;;11.85;100.00
12969;BME280;6549;53.128;8.182;2023-02-22T10:44:38;101039.25;;;12.10;100.00
12969;BME280;6549;53.128;8.182;2023-02-22T10:47:39;101033.78;;;12.32;100.00
12969;BME280;6549;53.128;8.182;2023-02-22T10:50:42;101029.88;;;12.40;100.00
12969;BME280;6549;53.128;8.182;2023-02-22T10:53:43;101020.44;;;12.41;100.00
12969;BME280;6549;53.128;8.182;2023-02-22T10:56:46;101020.44;;;12.62;100.00
12969;BME280;6549;53.128;8.182;2023-02-22T10:59:48;101018.47;;;12.59;100.00
12969;BME280;6549;53.128;8.182;2023-02-22T11:02:51;101020.47;;;12.69;100.00
12969;BME280;6549;53.128;8.182;2023-02-22T11:05:52;101020.81;;;12.39;100.00
12969;BME280;6549;53.128;8.182;2023-02-22T11:09:12;101007.84;;;12.54;100.00
12969;BME280;6549;53.128;8.182;2023-02-22T11:12:19;101011.38;;;12.61;100.00
12969;BME280;6549;53.128;8.182;2023-02-22T11:18:26;100999.97;;;12.70;100.00
12969;BME280;6549;53.128;8.182;2023-02-22T11:21:29;100999.97;;;12.56;100.00
12969;BME280;6549;53.128;8.182;2023-02-22T11:24:31;100996.03;;;12.64;100.00
12969;BME280;6549;53.128;8.182;2023-02-22T11:27:36;100997.63;;;12.83;100.00
12969;BME280;6549;53.128;8.182;2023-02-22T11:30:38;100995.63;;;12.80;100.00
12969;BME280;6549;53.128;8.182;2023-02-22T11:33:38;100985.00;;;12.71;100.00
12969;BME280;6549;53.128;8.182;2023-02-22T11:36:45;100988.16;;;12.77;100.00
12969;BME280;6549;53.128;8.182;2023-02-22T11:39:45;100979.88;;;12.66;100.00
12969;BME280;6549;53.128;8.182;2023-02-22T11:42:47;100984.22;;;12.56;100.00
12969;BME280;6549;53.128;8.182;2023-02-22T11:46:03;100980.69;;;12.63;100.00
12969;BME280;6549;53.128;8.182;2023-02-22T11:49:09;100980.28;;;12.57;100.00
12969;BME280;6549;53.128;8.182;2023-02-22T11:52:32;100968.47;;;12.64;100.00
12969;BME280;6549;53.128;8.182;2023-02-22T12:05:46;100967.66;;;12.28;100.00
12969;BME280;6549;53.128;8.182;2023-02-22T12:15:45;100938.53;;;12.27;100.00
12969;BME280;6549;53.128;8.182;2023-02-22T12:22:29;100933.03;;;12.45;100.00
12969;BME280;6549;53.128;8.182;2023-02-22T12:25:56;100922.78;;;12.52;100.00
12969;BME280;6549;53.128;8.182;2023-02-22T12:32:39;100929.88;;;12.60;100.00
12969;BME280;6549;53.128;8.182;2023-02-22T12:35:53;100924.34;;;12.64;100.00
12969;BME280;6549;53.128;8.182;2023-02-22T12:39:02;100921.22;;;12.66;100.00
12969;BME280;6549;53.128;8.182;2023-02-22T12:42:12;100914.91;;;12.69;100.00
12969;BME280;6549;53.128;8.182;2023-02-22T12:45:38;100910.19;;;12.69;100.00
12969;BME280;6549;53.128;8.182;2023-02-22T12:48:57;100903.88;;;12.72;100.00
12969;BME280;6549;53.128;8.182;2023-02-22T12:52:06;100912.53;;;12.78;100.00
12969;BME280;6549;53.128;8.182;2023-02-22T12:55:13;100909.78;;;12.74;100.00
12969;BME280;6549;53.128;8.182;2023-02-22T13:01:27;100910.97;;;12.52;100.00
12969;BME280;6549;53.128;8.182;2023-02-22T13:04:29;100918.84;;;12.64;100.00
12969;BME280;6549;53.128;8.182;2023-02-22T13:11:01;100914.09;;;12.57;100.00
12969;BME280;6549;53.128;8.182;2023-02-22T13:17:58;100909.38;;;12.69;100.00
12969;BME280;6549;53.128;8.182;2023-02-22T13:21:14;100915.69;;;12.76;100.00
12969;BME280;6549;53.128;8.182;2023-02-22T13:27:26;100913.28;;;12.99;100.00
12969;BME280;6549;53.128;8.182;2023-02-22T13:30:40;100904.59;;;12.97;100.00
12969;BME280;6549;53.128;8.182;2023-02-22T13:44:07;100886.53;;;12.75;100.00
12969;BME280;6549;53.128;8.182;2023-02-22T13:54:07;100878.28;;;12.61;100.00
12969;BME280;6549;53.128;8.182;2023-02-22T13:57:22;100879.06;;;12.61;100.00
12969;BME280;6549;53.128;8.182;2023-02-22T14:00:47;100872.38;;;12.70;100.00
12969;BME280;6549;53.128;8.182;2023-02-22T14:03:48;100877.06;;;12.80;100.00
12969;BME280;6549;53.128;8.182;2023-02-22T14:06:48;100873.13;;;12.81;100.00
12969;BME280;6549;53.128;8.182;2023-02-22T14:09:52;100874.34;;;12.66;100.00
12969;BME280;6549;53.128;8.182;2023-02-22T14:13:03;100869.22;;;12.60;100.00
12969;BME280;6549;53.128;8.182;2023-02-22T14:19:17;100862.91;;;12.74;100.00
12969;BME280;6549;53.128;8.182;2023-02-22T14:22:27;100866.03;;;12.76;100.00
12969;BME280;6549;53.128;8.182;2023-02-22T14:25:39;100863.28;;;12.76;100.00
12969;BME280;6549;53.128;8.182;2023-02-22T14:28:54;100868.03;;;12.72;100.00
12969;BME280;6549;53.128;8.182;2023-02-22T14:32:05;100862.88;;;12.71;100.00
12969;BME280;6549;53.128;8.182;2023-02-22T14:35:12;100864.88;;;12.63;100.00
12969;BME280;6549;53.128;8.182;2023-02-22T14:38:16;100861.72;;;12.57;100.00
12969;BME280;6549;53.128;8.182;2023-02-22T14:41:22;100859.78;;;12.44;100.00
12969;BME280;6549;53.128;8.182;2023-02-22T14:44:33;100853.13;;;12.34;100.00
12969;BME280;6549;53.128;8.182;2023-02-22T14:47:58;100857.44;;;12.28;100.00
12969;BME280;6549;53.128;8.182;2023-02-22T14:51:06;100859.41;;;12.31;100.00
12969;BME280;6549;53.128;8.182;2023-02-22T14:57:29;100857.44;;;12.28;100.00
12969;BME280;6549;53.128;8.182;2023-02-22T15:00:43;100856.66;;;12.28;100.00
12969;BME280;6549;53.128;8.182;2023-02-22T15:03:45;100859.78;;;12.23;100.00
12969;BME280;6549;53.128;8.182;2023-02-22T15:06:46;100864.94;;;12.24;100.00
12969;BME280;6549;53.128;8.182;2023-02-22T15:09:47;100862.94;;;12.18;100.00
12969;BME280;6549;53.128;8.182;2023-02-22T15:12:52;100858.22;;;12.18;100.00
12969;BME280;6549;53.128;8.182;2023-02-22T15:18:56;100859.00;;;12.19;100.00
12969;BME280;6549;53.128;8.182;2023-02-22T15:21:58;100857.06;;;12.15;100.00
12969;BME280;6549;53.128;8.182;2023-02-22T15:25:05;100855.06;;;12.09;100.00
12969;BME280;6549;53.128;8.182;2023-02-22T15:28:05;100855.09;;;12.02;100.00
12969;BME280;6549;53.128;8.182;2023-02-22T15:31:15;100860.59;;;11.98;100.00
12969;BME280;6549;53.128;8.182;2023-02-22T15:34:30;100858.22;;;11.97;100.00
12969;BME280;6549;53.128;8.182;2023-02-22T15:37:30;100857.03;;;11.94;100.00
12969;BME280;6549;53.128;8.182;2023-02-22T15:40:32;100858.22;;;11.93;100.00
12969;BME280;6549;53.128;8.182;2023-02-22T15:43:33;100865.28;;;11.91;100.00
12969;BME280;6549;53.128;8.182;2023-02-22T15:46:33;100856.63;;;11.89;100.00
12969;BME280;6549;53.128;8.182;2023-02-22T15:49:34;100862.53;;;11.87;100.00
12969;BME280;6549;53.128;8.182;2023-02-22T15:52:36;100861.34;;;11.85;100.00
12969;BME280;6549;53.128;8.182;2023-02-22T15:55:39;100859.00;;;11.83;100.00
12969;BME280;6549;53.128;8.182;2023-02-22T15:58:41;100855.44;;;11.76;100.00
12969;BME280;6549;53.128;8.182;2023-02-22T16:01:44;100849.50;;;11.66;100.00
12969;BME280;6549;53.128;8.182;2023-02-22T16:04:45;100847.13;;;11.65;100.00
12969;BME280;6549;53.128;8.182;2023-02-22T16:07:49;100849.50;;;11.63;100.00
12969;BME280;6549;53.128;8.182;2023-02-22T16:11:13;100857.34;;;11.57;100.00
12969;BME280;6549;53.128;8.182;2023-02-22T16:17:38;100857.28;;;11.40;100.00
12969;BME280;6549;53.128;8.182;2023-02-22T16:20:40;100863.94;;;11.32;100.00
12969;BME280;6549;53.128;8.182;2023-02-22T16:23:54;100853.69;;;11.21;100.00
12969;BME280;6549;53.128;8.182;2023-02-22T16:27:14;100852.09;;;11.13;100.00
12969;BME280;6549;53.128;8.182;2023-02-22T16:30:26;100861.88;;;11.07;100.00
12969;BME280;6549;53.128;8.182;2023-02-22T16:33:27;100863.00;;;10.99;100.00
12969;BME280;6549;53.128;8.182;2023-02-22T16:36:47;100864.53;;;10.90;100.00
12969;BME280;6549;53.128;8.182;2023-02-22T16:39:50;100862.53;;;10.83;100.00
12969;BME280;6549;53.128;8.182;2023-02-22T16:42:51;100864.06;;;10.73;100.00
12969;BME280;6549;53.128;8.182;2023-02-22T16:45:51;100873.81;;;10.67;100.00
12969;BME280;6549;53.128;8.182;2023-02-22T16:48:54;100862.41;;;10.62;100.00
12969;BME280;6549;53.128;8.182;2023-02-22T16:51:58;100858.81;;;10.54;100.00
12969;BME280;6549;53.128;8.182;2023-02-22T16:55:00;100863.91;;;10.49;100.00
12969;BME280;6549;53.128;8.182;2023-02-22T16:58:02;100873.66;;;10.43;100.00
12969;BME280;6549;53.128;8.182;2023-02-22T17:01:03;100870.88;;;10.39;100.00
12969;BME280;6549;53.128;8.182;2023-02-22T17:04:12;100878.31;;;10.35;100.00
12969;BME280;6549;53.128;8.182;2023-02-22T17:07:18;100880.25;;;10.31;100.00
12969;BME280;6549;53.128;8.182;2023-02-22T17:10:19;100889.63;;;10.26;100.00
12969;BME280;6549;53.128;8.182;2023-02-22T17:13:23;100881.75;;;10.21;100.00
12969;BME280;6549;53.128;8.182;2023-02-22T17:16:24;100887.97;;;10.18;100.00
12969;BME280;6549;53.128;8.182;2023-02-22T17:19:25;100878.50;;;10.12;100.00
12969;BME280;6549;53.128;8.182;2023-02-22T17:22:25;100888.66;;;10.08;100.00
12969;BME280;6549;53.128;8.182;2023-02-22T17:25:30;100896.06;;;10.04;100.00
12969;BME280;6549;53.128;8.182;2023-02-22T17:28:31;100897.97;;;10.00;100.00
12969;BME280;6549;53.128;8.182;2023-02-22T17:31:31;100897.16;;;9.96;100.00
12969;BME280;6549;53.128;8.182;2023-02-22T17:34:32;100900.25;;;9.91;100.00
12969;BME280;6549;53.128;8.182;2023-02-22T17:37:32;100904.53;;;9.88;100.00
12969;BME280;6549;53.128;8.182;2023-02-22T17:40:35;100895.91;;;9.86;100.00
12969;BME280;6549;53.128;8.182;2023-02-22T17:43:36;100896.22;;;9.81;100.00
12969;BME280;6549;53.128;8.182;2023-02-22T17:46:37;100897.75;;;9.79;100.00
12969;BME280;6549;53.128;8.182;2023-02-22T17:49:39;100893.03;;;9.76;100.00
12969;BME280;6549;53.128;8.182;2023-02-22T17:52:41;100893.00;;;9.72;100.00
12969;BME280;6549;53.128;8.182;2023-02-22T17:55:41;100900.78;;;9.67;100.00
12969;BME280;6549;53.128;8.182;2023-02-22T17:58:41;100900.34;;;9.65;100.00
12969;BME280;6549;53.128;8.182;2023-02-22T18:01:42;100901.50;;;9.60;100.00